ADDS TAF Board (Experimental) INFO

IDs: Format: Expanded Condensed

Updated at: 1011 UTC 25 Oct 2014

KTPA - Tampa Intl Arpt, FL, US

Issued at 0905 UTC 25 Oct 2014
Time0953Z25/11Z25/12Z25/13Z25/14Z25/15Z25/16Z25/17Z25/18Z25/19Z25/20Z25/21Z25/22Z25/23Z
TypeOBSPRVLPRVLPRVLPRVLPRVLPRVLPRVLPRVLPRVLPRVLPRVLPRVLPRVL
VIS10>6>6>6>6>6>6>6>6>6>6>6>6>6
CIG----------------------------
CoverCLRSKCSKCSKCSKCSKCSKCSKCSKCSKCSKCSKCSKCSKC
FltCat--VFRVFRVFRVFRVFRVFRVFRVFRVFRVFRVFRVFRVFR
WX----------------------------
WDir36020202020360360360340340340340340340
WSpd83333777888888
WGst----------------------------
R01/19
XWnd0-1-1-1-1000333333
HWnd83333777777777
R10/28
XWnd83333777777777
HWnd-01111-0-0-0-3-3-3-3-3-3
Raw TAF
KTPA 250905Z 2509/2606 02003KT P6SM SKC
  FM251500 36007KT P6SM SKC
  FM251800 34008KT P6SM SKC
  FM260100 01003KT P6SM SKC


Raw METAR
KTPA 250953Z 36008KT 10SM CLR 16/13 A2998 RMK AO2 SLP151 T01560128

TAF Board Legend

Hazard VFR MVFR IFR LIFR
Visibility (sm) >5 3≤X≤5 1≤X<3 <1
Ceiling (100 ft) >30 10≤X≤30 5≤X<10 <5
Wind Speed (kt) <10 10≤X<20 20≤X<30 ≥30
Wind Gust (kt) <15 15≤X<25 25≤X<35 ≥35
Weather No Wx Reported VCTS,-TS,-FZRA TS,FZRA +TS,+FZRA


Page loaded:  10:11 UTC  |   03:11 AM Pacific  |   04:11 AM Mountain  |   05:11 AM Central  |   06:11 AM Eastern

 

ADVISORIES

FORECASTS

FORECASTS

OBSERVATIONS

USER TOOLS

ABOUT US